sensor_id;sensor_type;location;lat;lon;timestamp;pressure;altitude;pressure_sealevel;temperature;humidity
82672;BME280;72378;52.468;13.432;2024-01-06T00:01:32;100095.72;;;4.13;75.62
82672;BME280;72378;52.468;13.432;2024-01-06T00:03:58;100089.97;;;4.26;75.18
82672;BME280;72378;52.468;13.432;2024-01-06T00:06:24;100090.09;;;3.99;76.00
82672;BME280;72378;52.468;13.432;2024-01-06T00:08:50;100091.69;;;4.09;75.71
82672;BME280;72378;52.468;13.432;2024-01-06T00:11:19;100096.09;;;4.18;75.15
82672;BME280;72378;52.468;13.432;2024-01-06T00:13:47;100094.38;;;4.09;75.78
82672;BME280;72378;52.468;13.432;2024-01-06T00:16:16;100096.13;;;3.83;76.30
82672;BME280;72378;52.468;13.432;2024-01-06T00:18:42;100101.09;;;3.96;76.24
82672;BME280;72378;52.468;13.432;2024-01-06T00:21:09;100104.38;;;3.90;76.40
82672;BME280;72378;52.468;13.432;2024-01-06T00:23:35;100097.19;;;4.08;75.89
82672;BME280;72378;52.468;13.432;2024-01-06T00:26:02;100104.84;;;3.85;75.99
82672;BME280;72378;52.468;13.432;2024-01-06T00:28:28;100104.22;;;3.91;76.07
82672;BME280;72378;52.468;13.432;2024-01-06T00:30:56;100094.97;;;4.03;76.00
82672;BME280;72378;52.468;13.432;2024-01-06T00:33:22;100085.69;;;3.72;76.09
82672;BME280;72378;52.468;13.432;2024-01-06T00:35:48;100093.16;;;3.86;76.05
82672;BME280;72378;52.468;13.432;2024-01-06T00:38:14;100092.28;;;4.03;75.70
82672;BME280;72378;52.468;13.432;2024-01-06T00:40:41;100095.81;;;3.86;76.00
82672;BME280;72378;52.468;13.432;2024-01-06T00:43:07;100100.50;;;3.84;75.92
82672;BME280;72378;52.468;13.432;2024-01-06T00:45:34;100115.84;;;4.00;75.87
82672;BME280;72378;52.468;13.432;2024-01-06T00:48:01;100107.16;;;3.80;75.85
82672;BME280;72378;52.468;13.432;2024-01-06T00:50:28;100111.03;;;4.03;75.27
82672;BME280;72378;52.468;13.432;2024-01-06T00:52:54;100113.88;;;3.84;75.99
82672;BME280;72378;52.468;13.432;2024-01-06T00:55:21;100119.13;;;3.94;75.67
82672;BME280;72378;52.468;13.432;2024-01-06T00:57:48;100113.19;;;3.82;76.02
82672;BME280;72378;52.468;13.432;2024-01-06T01:00:15;100117.38;;;4.02;75.23
82672;BME280;72378;52.468;13.432;2024-01-06T01:02:41;100119.69;;;3.97;75.05
82672;BME280;72378;52.468;13.432;2024-01-06T01:05:09;100125.09;;;4.05;75.17
82672;BME280;72378;52.468;13.432;2024-01-06T01:07:35;100118.59;;;3.90;75.13
82672;BME280;72378;52.468;13.432;2024-01-06T01:10:02;100126.16;;;3.95;74.75
82672;BME280;72378;52.468;13.432;2024-01-06T01:12:29;100127.00;;;3.95;74.92
82672;BME280;72378;52.468;13.432;2024-01-06T01:14:56;100140.25;;;3.79;75.11
82672;BME280;72378;52.468;13.432;2024-01-06T01:17:22;100146.50;;;3.88;75.36
82672;BME280;72378;52.468;13.432;2024-01-06T01:19:48;100144.44;;;3.82;75.43
82672;BME280;72378;52.468;13.432;2024-01-06T01:22:16;100149.09;;;3.97;75.04
82672;BME280;72378;52.468;13.432;2024-01-06T01:24:42;100146.63;;;3.86;75.13
82672;BME280;72378;52.468;13.432;2024-01-06T01:27:09;100146.50;;;3.88;75.16
82672;BME280;72378;52.468;13.432;2024-01-06T01:29:35;100134.50;;;3.74;75.18
82672;BME280;72378;52.468;13.432;2024-01-06T01:32:02;100141.59;;;3.83;75.46
82672;BME280;72378;52.468;13.432;2024-01-06T01:34:28;100136.94;;;3.85;75.46
82672;BME280;72378;52.468;13.432;2024-01-06T01:36:55;100141.66;;;3.91;75.07
82672;BME280;72378;52.468;13.432;2024-01-06T01:39:22;100138.09;;;3.83;75.36
82672;BME280;72378;52.468;13.432;2024-01-06T01:41:49;100135.13;;;3.86;74.98
82672;BME280;72378;52.468;13.432;2024-01-06T01:44:15;100137.09;;;3.84;75.13
82672;BME280;72378;52.468;13.432;2024-01-06T01:46:42;100148.09;;;3.98;74.81
82672;BME280;72378;52.468;13.432;2024-01-06T01:49:08;100156.91;;;3.91;75.06
82672;BME280;72378;52.468;13.432;2024-01-06T01:51:35;100148.25;;;3.79;75.22
82672;BME280;72378;52.468;13.432;2024-01-06T01:54:05;100149.94;;;3.98;74.85
82672;BME280;72378;52.468;13.432;2024-01-06T01:56:33;100148.47;;;4.03;74.46
82672;BME280;72378;52.468;13.432;2024-01-06T01:59:01;100152.06;;;4.12;74.27
82672;BME280;72378;52.468;13.432;2024-01-06T02:01:30;100157.25;;;4.13;74.32
82672;BME280;72378;52.468;13.432;2024-01-06T02:03:57;100155.81;;;3.84;74.48
82672;BME280;72378;52.468;13.432;2024-01-06T02:06:24;100156.66;;;3.84;75.08
82672;BME280;72378;52.468;13.432;2024-01-06T02:08:50;100154.34;;;4.07;74.22
82672;BME280;72378;52.468;13.432;2024-01-06T02:11:16;100159.88;;;4.05;74.46
82672;BME280;72378;52.468;13.432;2024-01-06T02:13:44;100159.63;;;3.99;74.40
82672;BME280;72378;52.468;13.432;2024-01-06T02:16:10;100162.16;;;4.00;74.21
82672;BME280;72378;52.468;13.432;2024-01-06T02:18:36;100162.00;;;4.19;73.80
82672;BME280;72378;52.468;13.432;2024-01-06T02:21:03;100167.19;;;3.68;74.44
82672;BME280;72378;52.468;13.432;2024-01-06T02:23:31;100173.00;;;3.81;74.92
82672;BME280;72378;52.468;13.432;2024-01-06T02:25:57;100169.50;;;3.98;74.47
82672;BME280;72378;52.468;13.432;2024-01-06T02:28:48;100165.63;;;3.93;74.69
82672;BME280;72378;52.468;13.432;2024-01-06T02:31:15;100171.72;;;3.85;74.48
82672;BME280;72378;52.468;13.432;2024-01-06T02:33:41;100173.22;;;3.70;74.96
82672;BME280;72378;52.468;13.432;2024-01-06T02:36:07;100169.94;;;3.76;74.87
82672;BME280;72378;52.468;13.432;2024-01-06T02:38:35;100183.56;;;3.83;74.98
82672;BME280;72378;52.468;13.432;2024-01-06T02:41:01;100186.25;;;3.83;74.92
82672;BME280;72378;52.468;13.432;2024-01-06T02:43:28;100185.94;;;3.86;74.41
82672;BME280;72378;52.468;13.432;2024-01-06T02:45:54;100181.72;;;3.83;74.56
82672;BME280;72378;52.468;13.432;2024-01-06T02:48:20;100188.13;;;3.90;74.66
82672;BME280;72378;52.468;13.432;2024-01-06T02:50:47;100182.34;;;3.77;74.82
82672;BME280;72378;52.468;13.432;2024-01-06T02:53:13;100191.03;;;3.79;74.80
82672;BME280;72378;52.468;13.432;2024-01-06T02:55:41;100193.25;;;3.84;74.43
82672;BME280;72378;52.468;13.432;2024-01-06T02:58:07;100196.63;;;3.86;74.63
82672;BME280;72378;52.468;13.432;2024-01-06T03:00:33;100185.53;;;3.81;74.56
82672;BME280;72378;52.468;13.432;2024-01-06T03:02:59;100192.09;;;3.86;74.63
82672;BME280;72378;52.468;13.432;2024-01-06T03:05:26;100186.91;;;3.85;74.86
82672;BME280;72378;52.468;13.432;2024-01-06T03:07:52;100192.88;;;3.78;74.70
82672;BME280;72378;52.468;13.432;2024-01-06T03:10:18;100194.94;;;4.02;74.14
82672;BME280;72378;52.468;13.432;2024-01-06T03:12:46;100193.28;;;4.01;74.20
82672;BME280;72378;52.468;13.432;2024-01-06T03:15:13;100202.56;;;3.79;74.51
82672;BME280;72378;52.468;13.432;2024-01-06T03:17:39;100199.47;;;3.84;74.53
82672;BME280;72378;52.468;13.432;2024-01-06T03:20:06;100203.66;;;3.87;74.65
82672;BME280;72378;52.468;13.432;2024-01-06T03:22:34;100206.09;;;3.80;74.71
82672;BME280;72378;52.468;13.432;2024-01-06T03:25:00;100202.31;;;3.73;74.83
82672;BME280;72378;52.468;13.432;2024-01-06T03:27:28;100189.72;;;3.83;74.92
82672;BME280;72378;52.468;13.432;2024-01-06T03:29:55;100198.69;;;3.74;75.16
82672;BME280;72378;52.468;13.432;2024-01-06T03:32:21;100206.81;;;3.72;74.71
82672;BME280;72378;52.468;13.432;2024-01-06T03:34:49;100202.78;;;3.68;75.06
82672;BME280;72378;52.468;13.432;2024-01-06T03:37:15;100211.03;;;3.75;74.96
82672;BME280;72378;52.468;13.432;2024-01-06T03:39:42;100217.16;;;3.85;74.82
82672;BME280;72378;52.468;13.432;2024-01-06T03:42:08;100212.22;;;3.90;74.58
82672;BME280;72378;52.468;13.432;2024-01-06T03:44:34;100216.78;;;3.80;74.83
82672;BME280;72378;52.468;13.432;2024-01-06T03:47:02;100222.50;;;3.85;74.31
82672;BME280;72378;52.468;13.432;2024-01-06T03:49:28;100226.59;;;3.89;74.47
82672;BME280;72378;52.468;13.432;2024-01-06T03:51:55;100227.53;;;3.70;75.04
82672;BME280;72378;52.468;13.432;2024-01-06T03:54:21;100230.41;;;3.59;75.27
82672;BME280;72378;52.468;13.432;2024-01-06T03:56:47;100225.59;;;3.63;75.14
82672;BME280;72378;52.468;13.432;2024-01-06T03:59:14;100228.03;;;3.56;75.48
82672;BME280;72378;52.468;13.432;2024-01-06T04:01:40;100237.84;;;3.65;74.83
82672;BME280;72378;52.468;13.432;2024-01-06T04:04:08;100234.00;;;3.50;75.46
82672;BME280;72378;52.468;13.432;2024-01-06T04:06:34;100238.66;;;3.66;75.27
82672;BME280;72378;52.468;13.432;2024-01-06T04:09:00;100240.38;;;3.67;75.19
82672;BME280;72378;52.468;13.432;2024-01-06T04:11:27;100238.00;;;3.64;75.25
82672;BME280;72378;52.468;13.432;2024-01-06T04:13:53;100241.72;;;3.71;74.73
82672;BME280;72378;52.468;13.432;2024-01-06T04:16:20;100248.03;;;3.52;75.43
82672;BME280;72378;52.468;13.432;2024-01-06T04:18:46;100245.16;;;3.63;75.33
82672;BME280;72378;52.468;13.432;2024-01-06T04:21:14;100246.91;;;3.55;75.11
82672;BME280;72378;52.468;13.432;2024-01-06T04:23:40;100253.03;;;3.65;75.65
82672;BME280;72378;52.468;13.432;2024-01-06T04:26:06;100248.88;;;3.53;75.50
82672;BME280;72378;52.468;13.432;2024-01-06T04:28:33;100256.16;;;3.60;75.30
82672;BME280;72378;52.468;13.432;2024-01-06T04:30:59;100264.44;;;3.67;75.37
82672;BME280;72378;52.468;13.432;2024-01-06T04:33:25;100258.47;;;3.73;75.14
82672;BME280;72378;52.468;13.432;2024-01-06T04:35:52;100263.34;;;3.60;75.13
82672;BME280;72378;52.468;13.432;2024-01-06T04:38:19;100261.53;;;3.51;75.63
82672;BME280;72378;52.468;13.432;2024-01-06T04:40:46;100266.00;;;3.60;75.11
82672;BME280;72378;52.468;13.432;2024-01-06T04:43:12;100259.09;;;3.57;75.38
82672;BME280;72378;52.468;13.432;2024-01-06T04:45:38;100259.88;;;3.50;75.61
82672;BME280;72378;52.468;13.432;2024-01-06T04:48:05;100238.81;;;3.37;75.62
82672;BME280;72378;52.468;13.432;2024-01-06T04:50:32;100272.53;;;3.75;75.14
82672;BME280;72378;52.468;13.432;2024-01-06T04:52:58;100277.16;;;3.55;75.40
82672;BME280;72378;52.468;13.432;2024-01-06T04:55:26;100271.59;;;3.66;75.58
82672;BME280;72378;52.468;13.432;2024-01-06T04:57:52;100285.41;;;3.62;75.33
82672;BME280;72378;52.468;13.432;2024-01-06T05:00:18;100283.47;;;3.54;75.50
82672;BME280;72378;52.468;13.432;2024-01-06T05:02:45;100289.59;;;3.37;76.01
82672;BME280;72378;52.468;13.432;2024-01-06T05:05:11;100291.34;;;3.56;75.77
82672;BME280;72378;52.468;13.432;2024-01-06T05:07:37;100281.75;;;3.63;75.43
82672;BME280;72378;52.468;13.432;2024-01-06T05:10:04;100282.09;;;3.50;76.01
82672;BME280;72378;52.468;13.432;2024-01-06T05:12:32;100282.38;;;3.47;76.12
82672;BME280;72378;52.468;13.432;2024-01-06T05:14:58;100282.03;;;3.60;75.77
82672;BME280;72378;52.468;13.432;2024-01-06T05:17:25;100290.38;;;3.57;75.66
82672;BME280;72378;52.468;13.432;2024-01-06T05:19:51;100290.13;;;3.41;76.33
82672;BME280;72378;52.468;13.432;2024-01-06T05:22:17;100292.91;;;3.49;75.95
82672;BME280;72378;52.468;13.432;2024-01-06T05:24:44;100288.97;;;3.53;75.92
82672;BME280;72378;52.468;13.432;2024-01-06T05:27:11;100298.94;;;3.60;75.81
82672;BME280;72378;52.468;13.432;2024-01-06T05:29:38;100299.19;;;3.67;75.89
82672;BME280;72378;52.468;13.432;2024-01-06T05:32:05;100292.13;;;3.66;75.40
82672;BME280;72378;52.468;13.432;2024-01-06T05:34:32;100301.41;;;3.71;75.32
82672;BME280;72378;52.468;13.432;2024-01-06T05:36:58;100293.78;;;3.76;75.09
82672;BME280;72378;52.468;13.432;2024-01-06T05:39:24;100301.16;;;3.65;75.23
82672;BME280;72378;52.468;13.432;2024-01-06T05:41:51;100310.97;;;3.74;75.37
82672;BME280;72378;52.468;13.432;2024-01-06T05:44:17;100313.66;;;3.74;75.10
82672;BME280;72378;52.468;13.432;2024-01-06T05:46:45;100311.22;;;3.81;75.25
82672;BME280;72378;52.468;13.432;2024-01-06T05:49:11;100324.41;;;3.55;75.75
82672;BME280;72378;52.468;13.432;2024-01-06T05:51:37;100320.19;;;3.52;76.01
82672;BME280;72378;52.468;13.432;2024-01-06T05:54:09;100318.53;;;3.78;75.22
82672;BME280;72378;52.468;13.432;2024-01-06T05:56:36;100329.50;;;3.85;74.83
82672;BME280;72378;52.468;13.432;2024-01-06T05:59:02;100330.88;;;3.62;74.83
82672;BME280;72378;52.468;13.432;2024-01-06T06:01:28;100336.97;;;3.45;75.62
82672;BME280;72378;52.468;13.432;2024-01-06T06:03:56;100345.19;;;3.61;75.24
82672;BME280;72378;52.468;13.432;2024-01-06T06:06:22;100336.91;;;3.64;74.99
82672;BME280;72378;52.468;13.432;2024-01-06T06:08:49;100343.44;;;3.42;75.37
82672;BME280;72378;52.468;13.432;2024-01-06T06:11:15;100340.59;;;3.53;75.17
82672;BME280;72378;52.468;13.432;2024-01-06T06:13:41;100353.31;;;3.42;75.36
82672;BME280;72378;52.468;13.432;2024-01-06T06:16:09;100354.31;;;3.68;75.00
82672;BME280;72378;52.468;13.432;2024-01-06T06:18:37;100361.03;;;3.45;75.20
82672;BME280;72378;52.468;13.432;2024-01-06T06:21:05;100367.69;;;3.68;74.95
82672;BME280;72378;52.468;13.432;2024-01-06T06:23:32;100366.25;;;3.37;75.82
82672;BME280;72378;52.468;13.432;2024-01-06T06:25:59;100379.28;;;3.59;75.46
82672;BME280;72378;52.468;13.432;2024-01-06T06:28:25;100382.78;;;3.59;75.73
82672;BME280;72378;52.468;13.432;2024-01-06T06:30:52;100383.78;;;3.49;75.78
82672;BME280;72378;52.468;13.432;2024-01-06T06:33:18;100387.50;;;3.38;75.75
82672;BME280;72378;52.468;13.432;2024-01-06T06:35:44;100390.66;;;3.61;74.99
82672;BME280;72378;52.468;13.432;2024-01-06T06:38:12;100386.97;;;3.71;74.56
82672;BME280;72378;52.468;13.432;2024-01-06T06:40:38;100397.09;;;3.68;74.59
82672;BME280;72378;52.468;13.432;2024-01-06T06:43:05;100401.75;;;3.75;74.48
82672;BME280;72378;52.468;13.432;2024-01-06T06:45:31;100408.59;;;3.78;74.57
82672;BME280;72378;52.468;13.432;2024-01-06T06:47:58;100411.19;;;3.70;74.66
82672;BME280;72378;52.468;13.432;2024-01-06T06:50:24;100414.44;;;3.54;74.34
82672;BME280;72378;52.468;13.432;2024-01-06T06:52:52;100419.97;;;3.43;75.31
82672;BME280;72378;52.468;13.432;2024-01-06T06:55:20;100417.44;;;3.42;75.51
82672;BME280;72378;52.468;13.432;2024-01-06T06:57:46;100435.28;;;3.60;74.98
82672;BME280;72378;52.468;13.432;2024-01-06T07:00:13;100441.91;;;3.28;75.33
82672;BME280;72378;52.468;13.432;2024-01-06T07:02:40;100447.50;;;3.63;75.13
82672;BME280;72378;52.468;13.432;2024-01-06T07:05:07;100459.31;;;3.70;74.74
82672;BME280;72378;52.468;13.432;2024-01-06T07:07:33;100461.03;;;3.52;75.16
82672;BME280;72378;52.468;13.432;2024-01-06T07:10:00;100466.69;;;3.30;75.49
82672;BME280;72378;52.468;13.432;2024-01-06T07:12:27;100467.94;;;3.45;75.48
82672;BME280;72378;52.468;13.432;2024-01-06T07:14:54;100450.19;;;3.44;75.15
82672;BME280;72378;52.468;13.432;2024-01-06T07:17:20;100466.66;;;3.39;75.49
82672;BME280;72378;52.468;13.432;2024-01-06T07:19:47;100474.25;;;3.34;75.69
82672;BME280;72378;52.468;13.432;2024-01-06T07:22:13;100466.53;;;3.22;75.67
82672;BME280;72378;52.468;13.432;2024-01-06T07:24:41;100474.25;;;3.15;76.21
82672;BME280;72378;52.468;13.432;2024-01-06T07:27:08;100484.66;;;3.28;76.13
82672;BME280;72378;52.468;13.432;2024-01-06T07:29:35;100484.81;;;3.45;75.32
82672;BME280;72378;52.468;13.432;2024-01-06T07:32:03;100471.31;;;3.28;75.17
82672;BME280;72378;52.468;13.432;2024-01-06T07:34:31;100502.13;;;3.32;75.87
82672;BME280;72378;52.468;13.432;2024-01-06T07:36:58;100499.69;;;2.91;76.80
82672;BME280;72378;52.468;13.432;2024-01-06T07:39:24;100497.34;;;3.07;76.72
82672;BME280;72378;52.468;13.432;2024-01-06T07:41:51;100502.94;;;3.04;76.53
82672;BME280;72378;52.468;13.432;2024-01-06T07:44:17;100495.38;;;3.18;76.52
82672;BME280;72378;52.468;13.432;2024-01-06T07:46:49;100506.44;;;3.14;76.24
82672;BME280;72378;52.468;13.432;2024-01-06T07:49:15;100510.81;;;3.15;76.32
82672;BME280;72378;52.468;13.432;2024-01-06T07:51:41;100515.59;;;3.21;75.84
82672;BME280;72378;52.468;13.432;2024-01-06T07:54:08;100518.31;;;3.30;75.67
82672;BME280;72378;52.468;13.432;2024-01-06T07:56:34;100528.81;;;3.13;76.12
82672;BME280;72378;52.468;13.432;2024-01-06T07:59:00;100529.66;;;3.13;76.18
82672;BME280;72378;52.468;13.432;2024-01-06T08:01:27;100531.16;;;2.97;76.72
82672;BME280;72378;52.468;13.432;2024-01-06T08:03:54;100533.59;;;3.00;76.67
82672;BME280;72378;52.468;13.432;2024-01-06T08:06:21;100542.13;;;2.94;76.58
82672;BME280;72378;52.468;13.432;2024-01-06T08:08:47;100545.94;;;2.91;76.60
82672;BME280;72378;52.468;13.432;2024-01-06T08:11:14;100555.38;;;3.05;76.11
82672;BME280;72378;52.468;13.432;2024-01-06T08:13:40;100551.00;;;3.04;76.44
82672;BME280;72378;52.468;13.432;2024-01-06T08:16:06;100562.53;;;3.04;76.25
82672;BME280;72378;52.468;13.432;2024-01-06T08:18:33;100559.06;;;3.13;76.08
82672;BME280;72378;52.468;13.432;2024-01-06T08:21:00;100558.63;;;3.18;75.98
82672;BME280;72378;52.468;13.432;2024-01-06T08:23:27;100559.19;;;3.21;75.66
82672;BME280;72378;52.468;13.432;2024-01-06T08:25:53;100560.97;;;2.92;76.36
82672;BME280;72378;52.468;13.432;2024-01-06T08:28:20;100563.50;;;2.94;76.51
82672;BME280;72378;52.468;13.432;2024-01-06T08:30:48;100569.59;;;3.15;75.83
82672;BME280;72378;52.468;13.432;2024-01-06T08:33:14;100577.03;;;3.21;75.85
82672;BME280;72378;52.468;13.432;2024-01-06T08:35:42;100574.06;;;3.05;76.02
82672;BME280;72378;52.468;13.432;2024-01-06T08:38:10;100583.38;;;3.39;75.40
82672;BME280;72378;52.468;13.432;2024-01-06T08:40:36;100577.72;;;3.04;75.75
82672;BME280;72378;52.468;13.432;2024-01-06T08:43:03;100584.78;;;3.24;75.37
82672;BME280;72378;52.468;13.432;2024-01-06T08:45:30;100592.13;;;3.31;75.22
82672;BME280;72378;52.468;13.432;2024-01-06T08:47:56;100593.31;;;2.99;75.41
82672;BME280;72378;52.468;13.432;2024-01-06T08:50:23;100598.81;;;3.07;76.46
82672;BME280;72378;52.468;13.432;2024-01-06T08:52:49;100599.78;;;3.06;75.96
82672;BME280;72378;52.468;13.432;2024-01-06T08:55:17;100599.34;;;2.91;76.22
82672;BME280;72378;52.468;13.432;2024-01-06T08:57:43;100604.81;;;2.90;76.08
82672;BME280;72378;52.468;13.432;2024-01-06T09:00:10;100612.81;;;2.90;76.02
82672;BME280;72378;52.468;13.432;2024-01-06T09:02:37;100613.72;;;3.00;75.76
82672;BME280;72378;52.468;13.432;2024-01-06T09:05:04;100625.13;;;3.21;75.17
82672;BME280;72378;52.468;13.432;2024-01-06T09:07:31;100625.53;;;3.07;75.02
82672;BME280;72378;52.468;13.432;2024-01-06T09:09:57;100627.84;;;2.91;76.08
82672;BME280;72378;52.468;13.432;2024-01-06T09:12:25;100633.16;;;3.21;74.97
82672;BME280;72378;52.468;13.432;2024-01-06T09:14:52;100638.56;;;3.40;74.53
82672;BME280;72378;52.468;13.432;2024-01-06T09:17:18;100636.69;;;3.21;75.02
82672;BME280;72378;52.468;13.432;2024-01-06T09:19:44;100650.38;;;2.98;74.85
82672;BME280;72378;52.468;13.432;2024-01-06T09:22:11;100639.34;;;3.21;74.95
82672;BME280;72378;52.468;13.432;2024-01-06T09:24:38;100651.88;;;2.91;75.20
82672;BME280;72378;52.468;13.432;2024-01-06T09:27:04;100647.13;;;2.94;75.41
82672;BME280;72378;52.468;13.432;2024-01-06T09:29:32;100653.41;;;3.23;74.65
82672;BME280;72378;52.468;13.432;2024-01-06T09:31:58;100657.69;;;3.35;74.13
82672;BME280;72378;52.468;13.432;2024-01-06T09:34:25;100664.94;;;3.24;74.30
82672;BME280;72378;52.468;13.432;2024-01-06T09:36:51;100668.66;;;3.42;73.99
82672;BME280;72378;52.468;13.432;2024-01-06T09:39:17;100669.69;;;3.11;74.17
82672;BME280;72378;52.468;13.432;2024-01-06T09:41:44;100670.84;;;3.27;74.13
82672;BME280;72378;52.468;13.432;2024-01-06T09:44:10;100672.22;;;3.12;74.29
82672;BME280;72378;52.468;13.432;2024-01-06T09:46:38;100670.41;;;3.13;74.08
82672;BME280;72378;52.468;13.432;2024-01-06T09:49:05;100678.63;;;3.00;74.37
82672;BME280;72378;52.468;13.432;2024-01-06T09:51:35;100681.56;;;2.97;74.15
82672;BME280;72378;52.468;13.432;2024-01-06T09:54:04;100682.25;;;2.90;74.53
82672;BME280;72378;52.468;13.432;2024-01-06T09:56:34;100692.69;;;3.02;74.24
82672;BME280;72378;52.468;13.432;2024-01-06T09:59:01;100691.19;;;3.09;74.59
82672;BME280;72378;52.468;13.432;2024-01-06T10:01:28;100684.25;;;2.97;74.10
82672;BME280;72378;52.468;13.432;2024-01-06T10:03:56;100680.91;;;3.05;73.95
82672;BME280;72378;52.468;13.432;2024-01-06T10:06:22;100688.66;;;3.08;73.62
82672;BME280;72378;52.468;13.432;2024-01-06T10:08:50;100702.31;;;3.14;73.90
82672;BME280;72378;52.468;13.432;2024-01-06T10:11:16;100706.56;;;3.17;73.36
82672;BME280;72378;52.468;13.432;2024-01-06T10:13:43;100712.00;;;3.45;72.43
82672;BME280;72378;52.468;13.432;2024-01-06T10:16:09;100715.84;;;3.22;72.48
82672;BME280;72378;52.468;13.432;2024-01-06T10:18:35;100714.91;;;3.33;72.59
82672;BME280;72378;52.468;13.432;2024-01-06T10:21:05;100713.56;;;3.18;72.85
82672;BME280;72378;52.468;13.432;2024-01-06T10:23:32;100712.34;;;3.22;73.21
82672;BME280;72378;52.468;13.432;2024-01-06T10:25:59;100700.97;;;3.39;71.97
82672;BME280;72378;52.468;13.432;2024-01-06T10:28:26;100702.75;;;3.68;71.54
82672;BME280;72378;52.468;13.432;2024-01-06T10:30:53;100698.72;;;3.34;71.66
82672;BME280;72378;52.468;13.432;2024-01-06T10:33:20;100712.66;;;3.28;72.52
82672;BME280;72378;52.468;13.432;2024-01-06T10:35:48;100705.38;;;3.49;71.88
82672;BME280;72378;52.468;13.432;2024-01-06T10:38:15;100707.88;;;3.32;72.23
82672;BME280;72378;52.468;13.432;2024-01-06T10:40:56;100716.47;;;3.35;72.63
82672;BME280;72378;52.468;13.432;2024-01-06T10:43:23;100716.03;;;3.30;72.08
82672;BME280;72378;52.468;13.432;2024-01-06T10:45:51;100709.56;;;3.03;72.72
82672;BME280;72378;52.468;13.432;2024-01-06T10:48:20;100707.75;;;3.33;72.14
82672;BME280;72378;52.468;13.432;2024-01-06T10:50:47;100710.19;;;3.55;71.22
82672;BME280;72378;52.468;13.432;2024-01-06T10:53:16;100705.44;;;3.29;71.88
82672;BME280;72378;52.468;13.432;2024-01-06T10:55:44;100712.09;;;3.44;71.89
82672;BME280;72378;52.468;13.432;2024-01-06T10:58:12;100718.16;;;3.46;71.51
82672;BME280;72378;52.468;13.432;2024-01-06T11:00:41;100715.53;;;2.86;72.59
82672;BME280;72378;52.468;13.432;2024-01-06T11:03:09;100719.53;;;3.31;72.08
82672;BME280;72378;52.468;13.432;2024-01-06T11:05:36;100716.03;;;3.30;71.88
82672;BME280;72378;52.468;13.432;2024-01-06T11:08:03;100726.22;;;3.16;71.97
82672;BME280;72378;52.468;13.432;2024-01-06T11:10:32;100718.97;;;2.97;72.44
82672;BME280;72378;52.468;13.432;2024-01-06T11:13:09;100714.75;;;3.34;71.36
82672;BME280;72378;52.468;13.432;2024-01-06T11:15:41;100717.91;;;3.09;71.80
82672;BME280;72378;52.468;13.432;2024-01-06T11:18:07;100722.34;;;3.39;71.31
82672;BME280;72378;52.468;13.432;2024-01-06T11:20:34;100725.53;;;3.53;70.91
82672;BME280;72378;52.468;13.432;2024-01-06T11:25:43;100722.31;;;3.20;71.85
82672;BME280;72378;52.468;13.432;2024-01-06T11:28:10;100722.72;;;3.55;71.03
82672;BME280;72378;52.468;13.432;2024-01-06T11:30:38;100724.13;;;3.19;71.50
82672;BME280;72378;52.468;13.432;2024-01-06T11:33:05;100726.03;;;3.47;70.61
82672;BME280;72378;52.468;13.432;2024-01-06T11:35:31;100732.59;;;3.34;70.95
82672;BME280;72378;52.468;13.432;2024-01-06T11:38:01;100729.25;;;3.32;70.90
82672;BME280;72378;52.468;13.432;2024-01-06T11:40:33;100729.16;;;3.13;71.39
82672;BME280;72378;52.468;13.432;2024-01-06T11:43:03;100720.97;;;3.35;71.10
82672;BME280;72378;52.468;13.432;2024-01-06T11:45:31;100716.78;;;3.42;70.36
82672;BME280;72378;52.468;13.432;2024-01-06T11:47:59;100694.44;;;3.13;70.57
82672;BME280;72378;52.468;13.432;2024-01-06T11:50:27;100711.88;;;3.56;70.13
82672;BME280;72378;52.468;13.432;2024-01-06T11:52:54;100715.09;;;3.50;70.14
82672;BME280;72378;52.468;13.432;2024-01-06T11:55:21;100724.16;;;3.29;70.34
82672;BME280;72378;52.468;13.432;2024-01-06T11:57:47;100720.34;;;3.22;70.01
82672;BME280;72378;52.468;13.432;2024-01-06T12:00:17;100712.81;;;3.36;69.72
82672;BME280;72378;52.468;13.432;2024-01-06T12:02:44;100710.78;;;3.59;69.29
82672;BME280;72378;52.468;13.432;2024-01-06T12:05:14;100719.19;;;3.15;69.95
82672;BME280;72378;52.468;13.432;2024-01-06T12:07:41;100723.03;;;3.22;69.71
82672;BME280;72378;52.468;13.432;2024-01-06T12:10:09;100718.59;;;3.41;69.13
82672;BME280;72378;52.468;13.432;2024-01-06T12:12:36;100715.22;;;3.09;69.28
82672;BME280;72378;52.468;13.432;2024-01-06T12:15:04;100724.09;;;3.10;69.75
82672;BME280;72378;52.468;13.432;2024-01-06T12:17:32;100730.94;;;3.33;68.78
82672;BME280;72378;52.468;13.432;2024-01-06T12:19:58;100726.19;;;3.46;69.30
82672;BME280;72378;52.468;13.432;2024-01-06T12:22:25;100727.41;;;3.32;69.65
82672;BME280;72378;52.468;13.432;2024-01-06T12:24:52;100738.94;;;3.33;69.10
82672;BME280;72378;52.468;13.432;2024-01-06T12:27:18;100737.22;;;3.22;69.33
82672;BME280;72378;52.468;13.432;2024-01-06T12:29:46;100736.69;;;3.28;69.29
82672;BME280;72378;52.468;13.432;2024-01-06T12:32:13;100733.78;;;3.11;69.67
82672;BME280;72378;52.468;13.432;2024-01-06T12:34:40;100741.22;;;3.07;70.07
82672;BME280;72378;52.468;13.432;2024-01-06T12:37:07;100744.66;;;3.19;69.79
82672;BME280;72378;52.468;13.432;2024-01-06T12:39:33;100741.69;;;3.52;69.08
82672;BME280;72378;52.468;13.432;2024-01-06T12:42:01;100748.88;;;3.61;68.86
82672;BME280;72378;52.468;13.432;2024-01-06T12:44:27;100752.28;;;3.72;68.42
82672;BME280;72378;52.468;13.432;2024-01-06T12:46:54;100753.13;;;3.63;68.49
82672;BME280;72378;52.468;13.432;2024-01-06T12:49:20;100758.72;;;3.21;69.25
82672;BME280;72378;52.468;13.432;2024-01-06T12:51:48;100759.78;;;3.09;70.24